Time;durP1;ratioP1;P1;durP2;ratioP2;P2;SDS_P1;SDS_P2;PMS_P1;PMS_P2;Temp;Humidity;BMP_temperature;BMP_pressure;BME280_temperature;BME280_humidity;BME280_pressure;Samples;Min_cycle;Max_cycle;Signal;HPM_P1;HPM_P2
2022/11/30 00:01:45;;;;;;;16.08;10.48;;;;;;;;;;4998502;28;20050;-83
2022/11/30 00:04:11;;;;;;;20.67;12.05;;;;;;;;;;4984757;28;20047;-84
2022/11/30 00:06:43;;;;;;;23.48;13.93;;;;;;;;;;4967311;28;20042;-82
2022/11/30 00:09:09;;;;;;;21.45;10.27;;;;;;;;;;4960028;28;20488;-84
2022/11/30 00:11:35;;;;;;;27.73;14.38;;;;;;;;;;4992701;28;20038;-82
2022/11/30 00:14:01;;;;;;;22.88;12.77;;;;;;;;;;4977504;28;20039;-83
2022/11/30 00:16:27;;;;;;;12.80;9.23;;;;;;;;;;4960165;28;20054;-83
2022/11/30 00:18:53;;;;;;;14.15;9.90;;;;;;;;;;4992500;28;20254;-82
2022/11/30 00:21:19;;;;;;;17.23;12.38;;;;;;;;;;4978901;28;20042;-81
2022/11/30 00:23:46;;;;;;;18.45;10.98;;;;;;;;;;4978742;28;20045;-82
2022/11/30 00:26:13;;;;;;;18.38;13.07;;;;;;;;;;4992717;28;20057;-82
2022/11/30 00:28:39;;;;;;;14.35;11.10;;;;;;;;;;4964229;28;20495;-82
2022/11/30 00:31:06;;;;;;;16.88;12.13;;;;;;;;;;4996940;28;20086;-82
2022/11/30 00:33:32;;;;;;;26.65;16.42;;;;;;;;;;4980389;28;20038;-82
2022/11/30 00:36:02;;;;;;;13.95;8.85;;;;;;;;;;4978972;28;20399;-81
2022/11/30 00:38:32;;;;;;;17.10;12.73;;;;;;;;;;4996750;28;20045;-84
2022/11/30 00:40:59;;;;;;;26.48;13.25;;;;;;;;;;4988910;28;20424;-82
2022/11/30 00:43:28;;;;;;;12.50;7.15;;;;;;;;;;4945357;29;20049;-84
2022/11/30 00:45:56;;;;;;;16.80;11.38;;;;;;;;;;4947840;28;20047;-83
2022/11/30 00:48:22;;;;;;;21.90;13.98;;;;;;;;;;4963206;28;20045;-82
2022/11/30 00:50:48;;;;;;;28.58;15.88;;;;;;;;;;4996746;28;20045;-82
2022/11/30 00:53:14;;;;;;;24.67;12.55;;;;;;;;;;4970977;28;20054;-82
2022/11/30 00:55:46;;;;;;;20.48;13.15;;;;;;;;;;4956145;28;20045;-82
2022/11/30 00:58:13;;;;;;;18.30;12.73;;;;;;;;;;4963051;28;20054;-82
2022/11/30 01:00:40;;;;;;;15.60;12.88;;;;;;;;;;4965168;28;20027;-82
2022/11/30 01:03:06;;;;;;;17.65;13.25;;;;;;;;;;4998796;28;20105;-82
2022/11/30 01:05:32;;;;;;;18.02;12.05;;;;;;;;;;4985895;28;20042;-83
2022/11/30 01:08:00;;;;;;;25.02;15.80;;;;;;;;;;4969819;28;20443;-79
2022/11/30 01:10:52;;;;;;;25.58;15.07;;;;;;;;;;4952814;28;20041;-81
2022/11/30 01:14:03;;;;;;;21.55;14.52;;;;;;;;;;4990024;28;20061;-83
2022/11/30 01:16:33;;;;;;;20.55;11.13;;;;;;;;;;4949569;28;20593;-83
2022/11/30 01:19:24;;;;;;;9.18;8.40;;;;;;;;;;4970906;29;20134;-83
2022/11/30 01:22:15;;;;;;;17.55;14.07;;;;;;;;;;4958500;28;20049;-82
2022/11/30 01:24:41;;;;;;;23.75;15.02;;;;;;;;;;4939966;29;20058;-84
2022/11/30 01:27:11;;;;;;;16.58;12.52;;;;;;;;;;4944762;29;20043;-84
2022/11/30 01:29:38;;;;;;;27.80;14.43;;;;;;;;;;4946060;28;20112;-84
2022/11/30 01:32:10;;;;;;;31.73;17.33;;;;;;;;;;4946498;28;20033;-84
2022/11/30 01:34:40;;;;;;;34.00;17.95;;;;;;;;;;4958360;28;20039;-83
2022/11/30 01:37:07;;;;;;;22.40;12.95;;;;;;;;;;4949951;28;20045;-84
2022/11/30 01:39:38;;;;;;;25.95;17.90;;;;;;;;;;4976362;28;20106;-85
2022/11/30 01:42:14;;;;;;;17.05;12.27;;;;;;;;;;4947218;28;20075;-83
2022/11/30 01:45:01;;;;;;;17.02;13.23;;;;;;;;;;4934365;29;20047;-83
2022/11/30 01:47:49;;;;;;;16.05;12.43;;;;;;;;;;4965701;28;20106;-83
2022/11/30 01:50:29;;;;;;;21.52;12.18;;;;;;;;;;4941042;28;20022;-83
2022/11/30 01:52:55;;;;;;;27.83;16.83;;;;;;;;;;4955399;28;20030;-83
2022/11/30 02:03:58;;;;;;;11.73;10.60;;;;;;;;;;5021368;22;20039;-86
2022/11/30 02:09:17;;;;;;;23.02;13.68;;;;;;;;;;5165232;22;20054;-82
2022/11/30 02:11:55;;;;;;;33.15;19.58;;;;;;;;;;4955512;28;20070;-81
2022/11/30 02:14:48;;;;;;;36.00;20.20;;;;;;;;;;4987971;28;20057;-80
2022/11/30 02:17:21;;;;;;;28.83;13.48;;;;;;;;;;4923556;28;20102;-80
2022/11/30 02:19:57;;;;;;;23.00;15.15;;;;;;;;;;4953591;28;20054;-81
2022/11/30 02:23:09;;;;;;;22.58;12.77;;;;;;;;;;4958813;28;20035;-82
2022/11/30 02:25:39;;;;;;;15.07;12.32;;;;;;;;;;4938843;29;20516;-81
2022/11/30 02:28:05;;;;;;;20.65;13.80;;;;;;;;;;4936885;28;20028;-81
2022/11/30 02:30:32;;;;;;;22.58;14.25;;;;;;;;;;4946354;28;20073;-82
2022/11/30 02:33:03;;;;;;;20.73;13.30;;;;;;;;;;4948199;29;20043;-85
2022/11/30 02:35:33;;;;;;;14.90;9.90;;;;;;;;;;4957173;29;20086;-84
2022/11/30 02:37:59;;;;;;;21.30;13.10;;;;;;;;;;4963151;28;20078;-83
2022/11/30 02:40:26;;;;;;;16.63;11.05;;;;;;;;;;4957514;29;20038;-84
2022/11/30 02:42:58;;;;;;;16.30;11.68;;;;;;;;;;4972213;28;20039;-81
2022/11/30 02:45:39;;;;;;;18.27;14.43;;;;;;;;;;4936079;28;20045;-81
2022/11/30 02:48:05;;;;;;;18.80;13.93;;;;;;;;;;4946944;29;20034;-81
2022/11/30 02:50:53;;;;;;;9.60;8.70;;;;;;;;;;4949392;28;20046;-81
2022/11/30 02:53:22;;;;;;;25.98;12.10;;;;;;;;;;4959403;28;20113;-81
2022/11/30 02:56:01;;;;;;;18.27;12.32;;;;;;;;;;4957002;28;20045;-82
2022/11/30 02:58:30;;;;;;;11.48;7.60;;;;;;;;;;4950587;29;20043;-81
2022/11/30 03:00:57;;;;;;;19.85;11.90;;;;;;;;;;4942821;29;20118;-82
2022/11/30 03:03:30;;;;;;;12.05;10.85;;;;;;;;;;4963374;28;20050;-80
2022/11/30 03:06:09;;;;;;;32.85;15.88;;;;;;;;;;4958022;28;20115;-81
2022/11/30 03:09:05;;;;;;;6.80;6.30;;;;;;;;;;4946033;28;20039;-80
2022/11/30 03:11:36;;;;;;;12.35;10.98;;;;;;;;;;4960627;28;20046;-82
2022/11/30 03:14:07;;;;;;;17.08;9.95;;;;;;;;;;4972935;28;20018;-80
2022/11/30 03:16:35;;;;;;;20.58;10.93;;;;;;;;;;4924347;28;20042;-80
2022/11/30 03:19:02;;;;;;;16.50;11.00;;;;;;;;;;4952303;28;20061;-80
2022/11/30 03:21:27;;;;;;;17.55;12.48;;;;;;;;;;4931795;28;20098;-82
2022/11/30 03:23:56;;;;;;;19.45;12.27;;;;;;;;;;4956642;28;20042;-84
2022/11/30 03:26:22;;;;;;;20.83;14.10;;;;;;;;;;4962734;28;20113;-81
2022/11/30 03:28:51;;;;;;;25.08;15.55;;;;;;;;;;4967579;28;20053;-83
2022/11/30 03:31:20;;;;;;;21.95;14.82;;;;;;;;;;5001413;28;20038;-82
2022/11/30 03:33:47;;;;;;;13.10;9.10;;;;;;;;;;4980462;28;20176;-82
2022/11/30 03:36:13;;;;;;;5.72;5.22;;;;;;;;;;4974668;28;20030;-82
2022/11/30 03:38:39;;;;;;;11.93;9.35;;;;;;;;;;4970766;28;20073;-81
2022/11/30 03:41:09;;;;;;;15.73;13.07;;;;;;;;;;4961028;28;20042;-81
2022/11/30 03:43:41;;;;;;;22.90;13.27;;;;;;;;;;4939162;28;20073;-81
2022/11/30 03:46:07;;;;;;;7.72;6.95;;;;;;;;;;4971993;28;20042;-82
2022/11/30 03:48:36;;;;;;;19.80;15.73;;;;;;;;;;4967256;28;20066;-86
2022/11/30 03:51:03;;;;;;;20.73;13.45;;;;;;;;;;4971087;28;20041;-83
2022/11/30 03:53:29;;;;;;;34.55;20.40;;;;;;;;;;4938319;28;20057;-84
2022/11/30 03:55:59;;;;;;;20.67;12.27;;;;;;;;;;4959735;28;20025;-84
2022/11/30 03:58:25;;;;;;;34.00;16.88;;;;;;;;;;4973384;28;20140;-83
2022/11/30 04:01:01;;;;;;;27.70;16.60;;;;;;;;;;4954397;28;20030;-83
2022/11/30 04:03:30;;;;;;;10.85;8.45;;;;;;;;;;4952421;28;20059;-81
2022/11/30 04:05:56;;;;;;;13.50;9.52;;;;;;;;;;4949704;28;20026;-82
2022/11/30 04:08:22;;;;;;;16.05;12.80;;;;;;;;;;4935683;28;20050;-82
2022/11/30 04:10:55;;;;;;;12.95;11.70;;;;;;;;;;4945726;28;20096;-83
2022/11/30 04:13:21;;;;;;;25.10;13.45;;;;;;;;;;4967331;28;20057;-84
2022/11/30 04:15:48;;;;;;;15.82;10.85;;;;;;;;;;4956067;28;20035;-83
2022/11/30 04:18:15;;;;;;;16.98;12.63;;;;;;;;;;4993445;28;20057;-84
2022/11/30 04:20:41;;;;;;;9.70;8.70;;;;;;;;;;4964106;28;20364;-85
2022/11/30 04:23:11;;;;;;;3.63;3.40;;;;;;;;;;4967784;28;20092;-83
2022/11/30 04:25:37;;;;;;;22.25;12.52;;;;;;;;;;4961032;28;20033;-84
2022/11/30 04:28:03;;;;;;;3.40;3.28;;;;;;;;;;4952656;28;20034;-81
2022/11/30 04:30:30;;;;;;;13.00;9.38;;;;;;;;;;4974429;28;20014;-82
2022/11/30 04:32:57;;;;;;;7.93;6.80;;;;;;;;;;4981719;28;20030;-82
2022/11/30 04:35:23;;;;;;;16.90;12.25;;;;;;;;;;4947492;28;20098;-82
2022/11/30 04:37:49;;;;;;;15.65;9.40;;;;;;;;;;4962487;28;20034;-82
2022/11/30 04:40:15;;;;;;;8.93;7.82;;;;;;;;;;4949318;28;20105;-82
2022/11/30 04:42:41;;;;;;;19.50;10.27;;;;;;;;;;4947945;28;20033;-83
2022/11/30 04:45:08;;;;;;;11.90;10.65;;;;;;;;;;4990807;28;20033;-82
2022/11/30 04:47:34;;;;;;;17.77;10.80;;;;;;;;;;4963738;28;20019;-82
2022/11/30 04:50:00;;;;;;;16.80;12.13;;;;;;;;;;4947935;28;20034;-82
2022/11/30 04:52:26;;;;;;;16.70;12.35;;;;;;;;;;4962112;28;20077;-82
2022/11/30 04:54:52;;;;;;;12.07;10.95;;;;;;;;;;4968448;28;20038;-82
2022/11/30 04:57:21;;;;;;;10.95;9.93;;;;;;;;;;4950662;28;20150;-80
2022/11/30 04:59:50;;;;;;;12.82;11.43;;;;;;;;;;4975233;28;20073;-81
2022/11/30 05:02:16;;;;;;;21.08;11.45;;;;;;;;;;4957491;28;20058;-81
2022/11/30 05:04:44;;;;;;;16.13;11.40;;;;;;;;;;4956137;28;20043;-80
2022/11/30 05:07:17;;;;;;;16.40;11.30;;;;;;;;;;4977291;28;20045;-81
2022/11/30 05:09:44;;;;;;;18.08;11.68;;;;;;;;;;4959865;28;20050;-81
2022/11/30 05:12:10;;;;;;;15.85;11.95;;;;;;;;;;4962502;28;20042;-81
2022/11/30 05:14:36;;;;;;;16.98;12.95;;;;;;;;;;4931426;28;20032;-79
2022/11/30 05:17:05;;;;;;;20.33;13.07;;;;;;;;;;4941716;28;20137;-79
2022/11/30 05:19:37;;;;;;;;;;;;;;;;;;4942906;28;20031;-79
2022/11/30 05:22:10;;;;;;;27.92;13.02;;;;;;;;;;4942096;28;20045;-78
2022/11/30 05:24:43;;;;;;;19.63;13.32;;;;;;;;;;4934004;28;20054;-79
2022/11/30 05:27:36;;;;;;;20.95;13.40;;;;;;;;;;4949201;28;20084;-80
2022/11/30 05:30:02;;;;;;;9.13;6.75;;;;;;;;;;4923977;28;20030;-76
2022/11/30 05:32:31;;;;;;;12.90;9.77;;;;;;;;;;4937777;28;20038;-75
2022/11/30 05:35:01;;;;;;;15.80;11.73;;;;;;;;;;4949004;28;20090;-77
2022/11/30 05:37:29;;;;;;;22.58;13.88;;;;;;;;;;4938737;28;20161;-76
2022/11/30 05:39:55;;;;;;;23.60;14.50;;;;;;;;;;4924292;28;20045;-78
2022/11/30 05:42:22;;;;;;;10.18;9.07;;;;;;;;;;4940376;28;20035;-76
2022/11/30 05:44:47;;;;;;;9.90;7.97;;;;;;;;;;4940372;28;20629;-76
2022/11/30 05:47:14;;;;;;;14.02;11.10;;;;;;;;;;4937437;28;20101;-76
2022/11/30 05:49:42;;;;;;;18.55;10.95;;;;;;;;;;4947749;28;20042;-79
2022/11/30 05:52:08;;;;;;;23.20;14.65;;;;;;;;;;4938203;28;20415;-78
2022/11/30 05:54:37;;;;;;;18.83;13.68;;;;;;;;;;4965748;28;20049;-78
2022/11/30 05:57:04;;;;;;;32.83;18.95;;;;;;;;;;4957366;28;20045;-79
2022/11/30 05:59:54;;;;;;;16.67;12.10;;;;;;;;;;4941151;28;20038;-79
2022/11/30 06:02:57;;;;;;;20.67;13.65;;;;;;;;;;4935089;28;20050;-77
2022/11/30 06:05:23;;;;;;;25.27;12.43;;;;;;;;;;4902005;28;20039;-78
2022/11/30 06:07:49;;;;;;;12.13;8.40;;;;;;;;;;4936269;28;20042;-77
2022/11/30 06:10:18;;;;;;;29.55;14.02;;;;;;;;;;4960234;28;20090;-77
2022/11/30 06:12:45;;;;;;;31.23;14.80;;;;;;;;;;4901340;29;20043;-77
2022/11/30 06:15:11;;;;;;;26.58;15.57;;;;;;;;;;4901600;29;20094;-79
2022/11/30 06:17:37;;;;;;;15.38;11.02;;;;;;;;;;4893206;29;20126;-78
2022/11/30 06:20:06;;;;;;;22.25;11.93;;;;;;;;;;4923456;29;20074;-77
2022/11/30 06:22:33;;;;;;;26.15;13.75;;;;;;;;;;4901890;28;20496;-77
2022/11/30 06:24:59;;;;;;;19.27;11.40;;;;;;;;;;4902846;29;20071;-76
2022/11/30 06:27:28;;;;;;;25.65;15.68;;;;;;;;;;4901340;28;20633;-78
2022/11/30 06:29:54;;;;;;;24.88;16.58;;;;;;;;;;4915590;29;20039;-78
2022/11/30 06:32:20;;;;;;;16.73;10.43;;;;;;;;;;4933662;29;20425;-77
2022/11/30 06:34:46;;;;;;;35.22;19.90;;;;;;;;;;4956812;28;20043;-77
2022/11/30 06:37:21;;;;;;;11.38;8.13;;;;;;;;;;4971163;28;20049;-78
2022/11/30 06:39:49;;;;;;;23.60;13.65;;;;;;;;;;4940930;28;20058;-79
2022/11/30 06:42:15;;;;;;;28.13;12.98;;;;;;;;;;4942233;28;20129;-78
2022/11/30 06:44:41;;;;;;;10.30;9.35;;;;;;;;;;4939922;28;20145;-78
2022/11/30 06:47:07;;;;;;;18.38;12.60;;;;;;;;;;4935190;28;20100;-77
2022/11/30 06:49:33;;;;;;;18.45;11.73;;;;;;;;;;4937088;28;20533;-78
2022/11/30 06:52:00;;;;;;;23.10;14.10;;;;;;;;;;4937064;28;20037;-77
2022/11/30 06:54:34;;;;;;;14.32;10.23;;;;;;;;;;4957873;28;20098;-78
2022/11/30 06:57:05;;;;;;;6.53;5.93;;;;;;;;;;4938124;28;20058;-78
2022/11/30 06:59:31;;;;;;;21.00;15.85;;;;;;;;;;4937863;28;20506;-78
2022/11/30 07:02:09;;;;;;;17.85;11.02;;;;;;;;;;4935533;28;20503;-75
2022/11/30 07:04:40;;;;;;;23.50;12.38;;;;;;;;;;4955237;28;20133;-77
2022/11/30 07:07:06;;;;;;;18.00;9.95;;;;;;;;;;4943580;28;20026;-79
2022/11/30 07:09:35;;;;;;;18.85;13.90;;;;;;;;;;4942473;28;20081;-77
2022/11/30 07:12:02;;;;;;;17.27;13.50;;;;;;;;;;4939445;28;20054;-79
2022/11/30 07:14:58;;;;;;;23.10;12.75;;;;;;;;;;4961529;28;20585;-80
2022/11/30 07:17:24;;;;;;;8.73;6.97;;;;;;;;;;4952845;28;20744;-79
2022/11/30 07:20:05;;;;;;;32.80;16.10;;;;;;;;;;4968393;28;20556;-78
2022/11/30 07:22:40;;;;;;;18.88;11.27;;;;;;;;;;4943096;28;20034;-78
2022/11/30 07:28:17;;;;;;;28.88;15.35;;;;;;;;;;4935508;28;20047;-80
2022/11/30 07:30:43;;;;;;;34.25;12.35;;;;;;;;;;4941724;28;20041;-79
2022/11/30 07:33:14;;;;;;;13.57;10.50;;;;;;;;;;4967920;28;20045;-78
2022/11/30 07:35:45;;;;;;;31.88;14.48;;;;;;;;;;4960069;28;20038;-78
2022/11/30 07:38:11;;;;;;;19.15;11.05;;;;;;;;;;4976539;28;20061;-78
2022/11/30 07:40:37;;;;;;;16.92;11.52;;;;;;;;;;4927477;28;20125;-79
2022/11/30 07:43:03;;;;;;;22.25;11.70;;;;;;;;;;4982917;28;20041;-79
2022/11/30 07:45:34;;;;;;;26.67;16.60;;;;;;;;;;4966634;28;20404;-81
2022/11/30 07:48:00;;;;;;;27.42;11.27;;;;;;;;;;4974959;28;20039;-79
2022/11/30 07:50:30;;;;;;;21.63;14.45;;;;;;;;;;4952003;28;20124;-81
2022/11/30 07:52:56;;;;;;;26.23;15.07;;;;;;;;;;4950213;28;20510;-81
2022/11/30 07:55:22;;;;;;;8.85;6.18;;;;;;;;;;4943441;28;20045;-79
2022/11/30 07:57:55;;;;;;;20.13;12.75;;;;;;;;;;4962933;28;20042;-80
2022/11/30 08:00:23;;;;;;;15.57;10.80;;;;;;;;;;4948523;28;20034;-81
2022/11/30 08:03:09;;;;;;;11.10;7.78;;;;;;;;;;4957399;28;20035;-80
2022/11/30 08:05:35;;;;;;;32.25;13.40;;;;;;;;;;4960954;28;20065;-80
2022/11/30 08:08:02;;;;;;;22.73;13.68;;;;;;;;;;4943899;28;20054;-80
2022/11/30 08:10:29;;;;;;;40.90;20.55;;;;;;;;;;4938276;28;20055;-80
2022/11/30 08:12:55;;;;;;;28.40;16.63;;;;;;;;;;4927109;28;20081;-79
2022/11/30 08:15:23;;;;;;;19.42;11.75;;;;;;;;;;4925047;28;20031;-80
2022/11/30 08:17:53;;;;;;;31.88;14.27;;;;;;;;;;4929612;28;20104;-80
2022/11/30 08:20:19;;;;;;;19.42;9.60;;;;;;;;;;4925476;28;20089;-80
2022/11/30 08:22:46;;;;;;;45.40;18.80;;;;;;;;;;4944187;28;20438;-80
2022/11/30 08:25:12;;;;;;;48.22;19.70;;;;;;;;;;4931679;28;20050;-80
2022/11/30 08:27:38;;;;;;;41.55;18.02;;;;;;;;;;4962723;28;20530;-80
2022/11/30 08:30:05;;;;;;;39.33;18.08;;;;;;;;;;4932630;28;20047;-80
2022/11/30 08:32:31;;;;;;;32.88;16.23;;;;;;;;;;4927044;28;20084;-80
2022/11/30 08:34:57;;;;;;;40.08;20.10;;;;;;;;;;4930113;28;20086;-80
2022/11/30 08:37:23;;;;;;;17.13;9.80;;;;;;;;;;4943926;28;20411;-80
2022/11/30 08:39:49;;;;;;;33.70;17.10;;;;;;;;;;4961000;28;20118;-79
2022/11/30 08:42:15;;;;;;;45.17;19.60;;;;;;;;;;4942302;28;20050;-80
2022/11/30 08:44:41;;;;;;;34.33;18.10;;;;;;;;;;4994949;28;20050;-81
2022/11/30 08:47:07;;;;;;;31.27;16.27;;;;;;;;;;4925605;28;20045;-81
2022/11/30 08:49:33;;;;;;;32.47;15.52;;;;;;;;;;4942684;28;20125;-80
2022/11/30 08:52:03;;;;;;;34.08;16.17;;;;;;;;;;4961724;28;20113;-81
2022/11/30 08:54:29;;;;;;;31.80;17.75;;;;;;;;;;4946992;28;20081;-75
2022/11/30 08:57:02;;;;;;;37.28;18.92;;;;;;;;;;4990545;28;20046;-77
2022/11/30 08:59:29;;;;;;;25.85;14.70;;;;;;;;;;4940395;28;20166;-76
2022/11/30 09:02:10;;;;;;;34.45;18.27;;;;;;;;;;4938215;28;20030;-77
2022/11/30 09:04:36;;;;;;;25.70;15.38;;;;;;;;;;4943900;28;20096;-77
2022/11/30 09:07:02;;;;;;;32.05;16.80;;;;;;;;;;4938298;28;20030;-77
2022/11/30 09:09:28;;;;;;;22.70;14.57;;;;;;;;;;4944016;28;20458;-76
2022/11/30 09:11:54;;;;;;;29.38;18.52;;;;;;;;;;4939441;28;20499;-75
2022/11/30 09:14:20;;;;;;;35.63;18.50;;;;;;;;;;4939945;28;20045;-77
2022/11/30 09:16:46;;;;;;;28.15;16.55;;;;;;;;;;4924129;28;20058;-78
2022/11/30 09:19:12;;;;;;;28.27;17.25;;;;;;;;;;4959774;28;20073;-81
2022/11/30 09:21:38;;;;;;;32.10;16.90;;;;;;;;;;4957880;28;20507;-76
2022/11/30 09:24:18;;;;;;;43.70;17.77;;;;;;;;;;4942351;28;20087;-78
2022/11/30 09:26:46;;;;;;;43.17;19.25;;;;;;;;;;4956061;28;20047;-75
2022/11/30 09:29:18;;;;;;;32.10;18.10;;;;;;;;;;4957810;28;20034;-76
2022/11/30 09:31:44;;;;;;;26.40;17.15;;;;;;;;;;4940893;28;20076;-75
2022/11/30 09:34:10;;;;;;;21.95;11.93;;;;;;;;;;4931452;28;20674;-76
2022/11/30 09:36:36;;;;;;;45.35;25.00;;;;;;;;;;4920623;28;20037;-76
2022/11/30 09:39:07;;;;;;;37.17;19.30;;;;;;;;;;4989157;28;20034;-76
2022/11/30 09:41:52;;;;;;;48.22;22.52;;;;;;;;;;4949882;28;20538;-76
2022/11/30 09:44:29;;;;;;;18.80;13.40;;;;;;;;;;4951831;28;20046;-75
2022/11/30 09:46:58;;;;;;;38.45;18.83;;;;;;;;;;4949069;28;20026;-77
2022/11/30 09:49:25;;;;;;;35.95;18.38;;;;;;;;;;4952085;28;20047;-76
2022/11/30 09:52:02;;;;;;;25.63;15.35;;;;;;;;;;4958672;28;20062;-76
2022/11/30 09:54:35;;;;;;;50.65;22.17;;;;;;;;;;4945947;28;20073;-76
2022/11/30 09:57:21;;;;;;;33.33;18.50;;;;;;;;;;4926807;28;20458;-77
2022/11/30 09:59:48;;;;;;;27.05;17.00;;;;;;;;;;4927755;28;20039;-76
2022/11/30 10:02:18;;;;;;;32.75;17.30;;;;;;;;;;4938620;28;20019;-76
2022/11/30 10:04:44;;;;;;;28.75;13.30;;;;;;;;;;4971481;28;20086;-79
2022/11/30 10:07:29;;;;;;;40.60;20.40;;;;;;;;;;4923527;28;20037;-80
2022/11/30 10:10:08;;;;;;;16.63;11.45;;;;;;;;;;4961511;28;20038;-79
2022/11/30 10:13:02;;;;;;;25.25;14.77;;;;;;;;;;4958487;28;20422;-75
2022/11/30 10:15:34;;;;;;;33.22;14.27;;;;;;;;;;4941082;28;20432;-80
2022/11/30 10:18:18;;;;;;;42.38;21.77;;;;;;;;;;4952489;28;20397;-81
2022/11/30 10:20:44;;;;;;;35.00;17.88;;;;;;;;;;4942031;28;20042;-79
2022/11/30 10:23:13;;;;;;;12.45;10.10;;;;;;;;;;4992251;28;20085;-76
2022/11/30 10:25:43;;;;;;;27.23;17.42;;;;;;;;;;4971976;28;20039;-80
2022/11/30 10:28:47;;;;;;;13.35;10.75;;;;;;;;;;4942203;28;20026;-80
2022/11/30 10:31:17;;;;;;;16.40;10.32;;;;;;;;;;4928893;28;20546;-79
2022/11/30 10:33:52;;;;;;;17.63;12.82;;;;;;;;;;4937943;28;20043;-79
2022/11/30 10:39:47;;;;;;;6.55;5.82;;;;;;;;;;4950662;28;20038;-79
2022/11/30 10:42:15;;;;;;;14.05;9.45;;;;;;;;;;4968538;28;20114;-79
2022/11/30 10:44:42;;;;;;;14.30;11.18;;;;;;;;;;4934235;28;20142;-78
2022/11/30 10:47:12;;;;;;;19.90;14.32;;;;;;;;;;4969717;28;20041;-80
2022/11/30 10:49:41;;;;;;;36.85;15.70;;;;;;;;;;4943199;28;20042;-80
2022/11/30 10:52:07;;;;;;;14.98;8.35;;;;;;;;;;4925842;28;20049;-80
2022/11/30 10:54:34;;;;;;;21.77;15.15;;;;;;;;;;4940804;28;20048;-79
2022/11/30 10:57:05;;;;;;;17.20;12.93;;;;;;;;;;4954027;28;20039;-79
2022/11/30 10:59:49;;;;;;;26.70;13.75;;;;;;;;;;4939095;28;20072;-80
2022/11/30 11:02:37;;;;;;;28.67;17.30;;;;;;;;;;4949299;28;20043;-80
2022/11/30 11:05:22;;;;;;;19.70;12.40;;;;;;;;;;4922852;28;20077;-80
2022/11/30 11:08:00;;;;;;;23.20;14.68;;;;;;;;;;4977093;28;20042;-80
2022/11/30 11:10:35;;;;;;;24.45;15.48;;;;;;;;;;4976410;28;20065;-80
2022/11/30 11:13:02;;;;;;;15.93;12.15;;;;;;;;;;4977192;28;20064;-80
2022/11/30 11:15:31;;;;;;;22.55;15.25;;;;;;;;;;4994278;28;20046;-80
2022/11/30 11:18:13;;;;;;;27.95;14.15;;;;;;;;;;4977180;28;20042;-81
2022/11/30 11:20:43;;;;;;;22.77;15.57;;;;;;;;;;4966661;28;20038;-79
2022/11/30 11:23:23;;;;;;;23.83;13.53;;;;;;;;;;4998433;28;20031;-79
2022/11/30 11:25:51;;;;;;;18.48;11.93;;;;;;;;;;4985638;28;20285;-79
2022/11/30 11:28:20;;;;;;;26.30;17.13;;;;;;;;;;4954832;28;20042;-80
2022/11/30 11:30:46;;;;;;;24.55;16.20;;;;;;;;;;4984427;28;20097;-79
2022/11/30 11:33:12;;;;;;;19.98;12.85;;;;;;;;;;5001278;28;20034;-79
2022/11/30 11:35:38;;;;;;;12.32;10.38;;;;;;;;;;5002099;28;20045;-80
2022/11/30 11:38:52;;;;;;;19.05;13.05;;;;;;;;;;4979251;28;20482;-79
2022/11/30 11:41:32;;;;;;;22.98;15.23;;;;;;;;;;4956827;28;20046;-79
2022/11/30 11:44:15;;;;;;;33.95;17.40;;;;;;;;;;4973684;28;20104;-79
2022/11/30 11:46:56;;;;;;;24.08;16.58;;;;;;;;;;4965414;28;20038;-80
2022/11/30 11:49:23;;;;;;;21.90;14.23;;;;;;;;;;4992416;28;20511;-78
2022/11/30 11:51:58;;;;;;;25.50;17.27;;;;;;;;;;4977825;28;20042;-80
2022/11/30 11:54:33;;;;;;;19.83;12.43;;;;;;;;;;4961304;28;20065;-78
2022/11/30 11:56:59;;;;;;;42.40;24.60;;;;;;;;;;4951143;28;20138;-78
2022/11/30 11:59:35;;;;;;;30.60;17.65;;;;;;;;;;4972914;28;21940;-80
2022/11/30 12:02:19;;;;;;;32.70;16.27;;;;;;;;;;4967392;28;20048;-79
2022/11/30 12:05:04;;;;;;;30.88;14.80;;;;;;;;;;4994169;28;20125;-79
2022/11/30 12:10:46;;;;;;;23.08;13.93;;;;;;;;;;4985980;28;20050;-80
2022/11/30 12:13:21;;;;;;;29.88;15.20;;;;;;;;;;4992502;28;20042;-80
2022/11/30 12:15:59;;;;;;;37.05;18.77;;;;;;;;;;4974617;28;20495;-80
2022/11/30 12:18:28;;;;;;;19.17;13.52;;;;;;;;;;4994231;28;20118;-80
2022/11/30 12:20:58;;;;;;;38.33;19.45;;;;;;;;;;4975926;28;20065;-78
2022/11/30 12:24:01;;;;;;;28.05;15.48;;;;;;;;;;4946754;28;20066;-80
2022/11/30 12:26:33;;;;;;;26.08;16.13;;;;;;;;;;4993304;28;20030;-80
2022/11/30 12:29:18;;;;;;;25.10;13.52;;;;;;;;;;4997777;28;20046;-79
2022/11/30 12:32:03;;;;;;;30.23;16.75;;;;;;;;;;4959774;28;20049;-79
2022/11/30 12:34:49;;;;;;;36.85;18.23;;;;;;;;;;4978094;28;20030;-80
2022/11/30 12:37:20;;;;;;;21.92;15.98;;;;;;;;;;4948340;28;20050;-81
2022/11/30 12:39:52;;;;;;;21.90;13.98;;;;;;;;;;4999177;28;20042;-80
2022/11/30 12:42:30;;;;;;;22.60;14.40;;;;;;;;;;4954697;28;20492;-82
2022/11/30 12:44:56;;;;;;;18.27;11.27;;;;;;;;;;4994868;28;20522;-76
2022/11/30 12:47:33;;;;;;;24.80;14.25;;;;;;;;;;4991305;28;20034;-76
2022/11/30 12:50:24;;;;;;;19.15;14.55;;;;;;;;;;4958061;28;20522;-76
2022/11/30 12:53:15;;;;;;;23.52;15.52;;;;;;;;;;4963608;28;20073;-77
2022/11/30 12:55:44;;;;;;;33.03;18.77;;;;;;;;;;4939987;28;20027;-75
2022/11/30 12:58:23;;;;;;;23.60;13.52;;;;;;;;;;4953627;28;20078;-75
2022/11/30 13:01:10;;;;;;;25.83;16.77;;;;;;;;;;4974017;28;20035;-75
2022/11/30 13:04:03;;;;;;;23.27;13.93;;;;;;;;;;4953108;28;20054;-78
2022/11/30 13:06:33;;;;;;;28.17;13.73;;;;;;;;;;4956984;28;20038;-80
2022/11/30 13:09:05;;;;;;;13.98;10.65;;;;;;;;;;4935783;28;20027;-76
2022/11/30 13:11:41;;;;;;;9.73;7.88;;;;;;;;;;4957132;28;20058;-75
2022/11/30 13:14:20;;;;;;;11.35;9.70;;;;;;;;;;4938968;28;20046;-75
2022/11/30 13:17:25;;;;;;;27.58;17.50;;;;;;;;;;4945067;28;20492;-76
2022/11/30 13:20:06;;;;;;;15.00;10.75;;;;;;;;;;4967476;28;20043;-75
2022/11/30 13:22:44;;;;;;;10.13;9.15;;;;;;;;;;4970073;28;20042;-74
2022/11/30 13:25:23;;;;;;;19.75;13.93;;;;;;;;;;4955965;28;20051;-78
2022/11/30 13:28:09;;;;;;;21.15;11.98;;;;;;;;;;4971124;28;20053;-75
2022/11/30 13:30:47;;;;;;;34.28;20.17;;;;;;;;;;4927957;28;20027;-75
2022/11/30 13:33:36;;;;;;;15.23;11.25;;;;;;;;;;4941775;28;20042;-75
2022/11/30 13:36:06;;;;;;;34.08;17.48;;;;;;;;;;4943025;28;20050;-75
2022/11/30 13:38:35;;;;;;;11.57;7.78;;;;;;;;;;4962138;28;20047;-76
2022/11/30 13:41:43;;;;;;;39.20;15.90;;;;;;;;;;4941759;28;20129;-75
2022/11/30 13:44:28;;;;;;;26.73;16.33;;;;;;;;;;4944607;28;20034;-76
2022/11/30 13:46:54;;;;;;;6.68;3.60;;;;;;;;;;4971829;28;20034;-76
2022/11/30 13:49:48;;;;;;;29.35;16.65;;;;;;;;;;4942411;28;20070;-74
2022/11/30 13:52:14;;;;;;;12.15;10.07;;;;;;;;;;4945483;28;20177;-74
2022/11/30 13:54:49;;;;;;;29.98;15.88;;;;;;;;;;4936770;28;20034;-74
2022/11/30 13:57:28;;;;;;;38.75;16.90;;;;;;;;;;4921458;28;20447;-76
2022/11/30 13:59:55;;;;;;;17.58;10.38;;;;;;;;;;4957824;28;20445;-76
2022/11/30 14:02:44;;;;;;;21.58;12.73;;;;;;;;;;4959547;28;20039;-75
2022/11/30 14:05:32;;;;;;;33.58;19.80;;;;;;;;;;4973077;28;20092;-75
2022/11/30 14:08:25;;;;;;;33.17;18.55;;;;;;;;;;4984869;28;20038;-76
2022/11/30 14:10:52;;;;;;;20.88;12.68;;;;;;;;;;4976632;28;20085;-78
2022/11/30 14:13:28;;;;;;;17.83;15.18;;;;;;;;;;4955167;28;20030;-76
2022/11/30 14:16:04;;;;;;;15.05;12.10;;;;;;;;;;4985107;28;20066;-76
2022/11/30 14:18:38;;;;;;;25.52;12.88;;;;;;;;;;4947030;28;20445;-76
2022/11/30 14:21:20;;;;;;;25.58;13.35;;;;;;;;;;4975383;28;20457;-75
2022/11/30 14:24:08;;;;;;;24.85;13.43;;;;;;;;;;4983727;28;20319;-76
2022/11/30 14:26:38;;;;;;;17.65;11.35;;;;;;;;;;4981821;28;20031;-76
2022/11/30 14:29:10;;;;;;;22.35;14.02;;;;;;;;;;4985809;28;20064;-76
2022/11/30 14:31:44;;;;;;;28.80;15.45;;;;;;;;;;4984738;28;20084;-76
2022/11/30 14:34:25;;;;;;;26.23;13.20;;;;;;;;;;4983705;28;20074;-77
2022/11/30 14:37:09;;;;;;;31.17;13.95;;;;;;;;;;4988067;28;20034;-76
2022/11/30 14:39:36;;;;;;;29.27;15.15;;;;;;;;;;4989672;28;20089;-76
2022/11/30 14:42:03;;;;;;;22.35;16.80;;;;;;;;;;4997057;28;20073;-75
2022/11/30 14:44:35;;;;;;;24.50;15.85;;;;;;;;;;4952989;28;20098;-76
2022/11/30 14:47:28;;;;;;;22.23;15.65;;;;;;;;;;4994807;28;20059;-78
2022/11/30 14:49:57;;;;;;;19.60;13.45;;;;;;;;;;4995107;28;20041;-75
2022/11/30 14:52:57;;;;;;;22.42;14.15;;;;;;;;;;4979577;28;20043;-77
2022/11/30 14:55:51;;;;;;;16.20;9.65;;;;;;;;;;4969781;28;20038;-76
2022/11/30 14:58:40;;;;;;;16.55;12.10;;;;;;;;;;4945047;28;20101;-75
2022/11/30 15:01:15;;;;;;;26.58;16.63;;;;;;;;;;4953034;28;20072;-76
2022/11/30 15:03:44;;;;;;;22.40;14.98;;;;;;;;;;4955165;28;20047;-75
2022/11/30 15:06:58;;;;;;;24.02;13.43;;;;;;;;;;4991263;28;20034;-77
2022/11/30 15:09:25;;;;;;;20.27;12.43;;;;;;;;;;4990972;28;20039;-76
2022/11/30 15:11:52;;;;;;;17.90;11.65;;;;;;;;;;4973348;28;20079;-79